Time;durP1;ratioP1;P1;durP2;ratioP2;P2;SDS_P1;SDS_P2;PMS_P1;PMS_P2;Temp;Humidity;BMP_temperature;BMP_pressure;BME280_temperature;BME280_humidity;BME280_pressure;Samples;Min_cycle;Max_cycle;Signal;HPM_P1;HPM_P2
2023/05/30 00:00:05;;;;;;;;;;;;;;;19.50;59.57;100319.00;5355936;32;33035;-84
2023/05/30 00:03:07;;;;;;;;;;;;;;;19.52;59.35;100322.41;5360290;32;33816;-85
2023/05/30 00:06:11;;;;;;;;;;;;;;;19.74;58.86;100321.59;5360794;32;33646;-86
2023/05/30 00:09:15;;;;;;;;;;;;;;;19.44;59.57;100330.97;5356228;32;44008;-85
2023/05/30 00:12:17;;;;;;;;;;;;;;;20.33;56.47;100326.66;5331449;32;34534;-84
2023/05/30 00:15:19;;;;;;;;;;;;;;;19.92;57.30;100322.84;5359681;32;34308;-85
2023/05/30 00:18:22;;;;;;;;;;;;;;;19.85;57.48;100321.63;5345699;32;32790;-85
2023/05/30 00:21:28;;;;;;;;;;;;;;;19.89;57.21;100315.06;5368045;32;33620;-86
2023/05/30 00:24:31;;;;;;;;;;;;;;;20.19;55.58;100318.94;5350114;32;32985;-84
2023/05/30 00:27:33;;;;;;;;;;;;;;;19.16;58.15;100328.72;5359159;32;34248;-85
2023/05/30 00:30:35;;;;;;;;;;;;;;;19.59;56.89;100323.66;5370367;32;33783;-84
2023/05/30 00:33:40;;;;;;;;;;;;;;;19.93;56.14;100319.19;5356587;32;34081;-85
2023/05/30 00:36:42;;;;;;;;;;;;;;;19.53;56.94;100332.09;5370152;32;44590;-85
2023/05/30 00:39:44;;;;;;;;;;;;;;;19.66;56.67;100330.22;5355535;32;33323;-84
2023/05/30 00:42:46;;;;;;;;;;;;;;;18.87;59.80;100334.44;5367124;32;35221;-85
2023/05/30 00:45:50;;;;;;;;;;;;;;;18.91;60.06;100333.22;5354051;32;35441;-86
2023/05/30 00:48:54;;;;;;;;;;;;;;;19.22;58.97;100330.94;5346460;32;33989;-83
2023/05/30 00:51:56;;;;;;;;;;;;;;;19.53;58.12;100328.59;5367219;32;35091;-84
2023/05/30 00:55:02;;;;;;;;;;;;;;;19.25;58.42;100322.69;5326862;32;934360;-85
2023/05/30 00:58:04;;;;;;;;;;;;;;;19.27;58.44;100333.25;5345804;32;34644;-84
2023/05/30 01:01:07;;;;;;;;;;;;;;;19.09;59.28;100319.50;5343451;32;35962;-85
2023/05/30 01:04:10;;;;;;;;;;;;;;;19.15;59.13;100329.69;5360460;32;33321;-84
2023/05/30 01:07:12;;;;;;;;;;;;;;;19.16;59.22;100323.41;5364862;32;45528;-85
2023/05/30 01:10:14;;;;;;;;;;;;;;;18.64;61.31;100329.91;5347685;32;34659;-86
2023/05/30 01:13:55;;;;;;;;;;;;;;;18.81;61.02;100324.25;5344392;32;33629;-85
2023/05/30 01:16:59;;;;;;;;;;;;;;;19.04;60.12;100333.16;5280970;32;36153;-84
2023/05/30 01:20:09;;;;;;;;;;;;;;;19.36;59.02;100324.53;5267377;32;32895;-84
2023/05/30 01:23:30;;;;;;;;;;;;;;;19.13;60.34;100329.81;5351853;32;44278;-84
2023/05/30 01:26:38;;;;;;;;;;;;;;;19.01;60.63;100327.22;5354269;32;34155;-84
2023/05/30 01:29:41;;;;;;;;;;;;;;;18.83;61.87;100329.44;5351454;32;33980;-84
2023/05/30 01:32:43;;;;;;;;;;;;;;;19.14;61.10;100323.53;5337617;32;45152;-84
2023/05/30 01:35:45;;;;;;;;;;;;;;;18.64;62.24;100337.91;5347561;32;33403;-85
2023/05/30 01:38:47;;;;;;;;;;;;;;;18.51;63.05;100323.81;5361370;32;33665;-84
2023/05/30 01:41:53;;;;;;;;;;;;;;;18.88;61.89;100324.63;5354320;32;33116;-84
2023/05/30 01:45:01;;;;;;;;;;;;;;;19.01;61.40;100325.41;5365469;32;33542;-84
2023/05/30 01:48:23;;;;;;;;;;;;;;;19.12;61.09;100327.25;5355709;32;33648;-84
2023/05/30 01:51:44;;;;;;;;;;;;;;;18.94;61.56;100318.84;5362429;32;33800;-84
2023/05/30 01:54:48;;;;;;;;;;;;;;;18.99;61.37;100324.66;5360375;32;46116;-84
2023/05/30 01:57:50;;;;;;;;;;;;;;;19.14;60.51;100325.34;5340896;32;33577;-85
2023/05/30 02:00:52;;;;;;;;;;;;;;;18.80;62.03;100321.66;5365702;32;34542;-85
2023/05/30 02:03:54;;;;;;;;;;;;;;;18.80;62.00;100322.50;5341881;32;33709;-85
2023/05/30 02:06:56;;;;;;;;;;;;;;;19.19;60.49;100325.81;5367945;32;33407;-85
2023/05/30 02:09:58;;;;;;;;;;;;;;;18.76;61.67;100323.72;5344886;32;33097;-84
2023/05/30 02:13:00;;;;;;;;;;;;;;;19.03;61.11;100319.97;5338584;32;33464;-83
2023/05/30 02:16:02;;;;;;;;;;;;;;;19.10;60.38;100319.38;5357763;32;34107;-84
2023/05/30 02:19:04;;;;;;;;;;;;;;;18.91;60.91;100317.25;5341710;32;33862;-84
2023/05/30 02:22:07;;;;;;;;;;;;;;;19.69;58.48;100315.78;5369948;32;33815;-84
2023/05/30 02:25:09;;;;;;;;;;;;;;;19.31;59.13;100318.72;5343588;32;33580;-84
2023/05/30 02:28:11;;;;;;;;;;;;;;;19.00;60.13;100317.50;5367325;32;45001;-85
2023/05/30 02:31:13;;;;;;;;;;;;;;;18.92;59.82;100308.28;5344201;32;33644;-84
2023/05/30 02:34:15;;;;;;;;;;;;;;;19.19;58.51;100309.81;5360898;32;34283;-85
2023/05/30 02:37:18;;;;;;;;;;;;;;;19.06;59.15;100317.06;5361062;32;34841;-84
2023/05/30 02:40:20;;;;;;;;;;;;;;;19.11;59.55;100314.91;5355561;32;33432;-84
2023/05/30 02:43:22;;;;;;;;;;;;;;;18.79;60.41;100314.66;5355220;32;33463;-85
2023/05/30 02:46:24;;;;;;;;;;;;;;;18.67;60.65;100313.75;5357188;32;34106;-85
2023/05/30 02:49:27;;;;;;;;;;;;;;;18.23;62.31;100316.97;5369219;32;34257;-84
2023/05/30 02:52:30;;;;;;;;;;;;;;;18.51;61.32;100308.69;5358922;32;33698;-84
2023/05/30 02:55:32;;;;;;;;;;;;;;;18.77;60.67;100313.94;5357553;32;34194;-85
2023/05/30 02:58:34;;;;;;;;;;;;;;;18.65;60.81;100311.16;5353223;32;32939;-84
2023/05/30 03:01:36;;;;;;;;;;;;;;;18.52;61.50;100309.53;5342438;32;33677;-84
2023/05/30 03:04:38;;;;;;;;;;;;;;;18.49;61.80;100313.28;5369476;32;33880;-84
2023/05/30 03:07:42;;;;;;;;;;;;;;;18.69;61.22;100318.97;5356633;32;45414;-84
2023/05/30 03:10:44;;;;;;;;;;;;;;;19.10;59.61;100319.38;5338759;32;32715;-84
2023/05/30 03:13:46;;;;;;;;;;;;;;;18.83;60.36;100324.13;5339408;32;34204;-84
2023/05/30 03:16:48;;;;;;;;;;;;;;;19.33;59.04;100322.13;5355587;32;33284;-84
2023/05/30 03:19:51;;;;;;;;;;;;;;;18.96;60.03;100332.03;5371608;32;34485;-84
2023/05/30 03:22:53;;;;;;;;;;;;;;;18.09;62.74;100328.56;5355728;32;33212;-83
2023/05/30 03:25:55;;;;;;;;;;;;;;;18.64;61.05;100329.91;5368022;32;33093;-84
2023/05/30 03:28:57;;;;;;;;;;;;;;;19.43;58.16;100328.44;5358151;32;33773;-84
2023/05/30 03:32:00;;;;;;;;;;;;;;;18.81;59.94;100337.56;5367106;32;33058;-84
2023/05/30 03:35:02;;;;;;;;;;;;;;;18.49;60.98;100331.91;5356803;32;34633;-84
2023/05/30 03:38:05;;;;;;;;;;;;;;;18.10;62.45;100336.47;5353457;32;35539;-84
2023/05/30 03:41:07;;;;;;;;;;;;;;;18.42;62.05;100343.97;5352503;32;33422;-83
2023/05/30 03:44:09;;;;;;;;;;;;;;;18.30;61.75;100345.69;5356415;32;34373;-83
2023/05/30 03:47:11;;;;;;;;;;;;;;;18.70;60.50;100345.47;5366788;32;44574;-83
2023/05/30 03:50:13;;;;;;;;;;;;;;;18.72;61.22;100350.69;5355129;32;33677;-84
2023/05/30 03:53:15;;;;;;;;;;;;;;;18.65;61.26;100352.91;5364569;32;33476;-84
2023/05/30 03:56:17;;;;;;;;;;;;;;;18.66;60.94;100354.59;5356659;32;33855;-84
2023/05/30 03:59:20;;;;;;;;;;;;;;;18.12;63.03;100361.12;5341603;32;33399;-84
2023/05/30 04:02:22;;;;;;;;;;;;;;;18.76;61.21;100365.47;5369080;32;33012;-85
2023/05/30 04:05:35;;;;;;;;;;;;;;;18.60;61.45;100366.53;5360934;32;34483;-86
2023/05/30 04:08:40;;;;;;;;;;;;;;;18.52;61.90;100370.75;5304742;32;36888;-83
2023/05/30 04:11:42;;;;;;;;;;;;;;;18.71;61.21;100360.47;5276644;32;45188;-84
2023/05/30 04:14:44;;;;;;;;;;;;;;;18.98;60.09;100354.94;5301903;32;33533;-84
2023/05/30 04:17:46;;;;;;;;;;;;;;;18.87;60.53;100373.50;5318552;32;33329;-85
2023/05/30 04:20:48;;;;;;;;;;;;;;;18.86;60.10;100366.47;5305487;32;33668;-84
2023/05/30 04:23:50;;;;;;;;;;;;;;;19.37;58.71;100367.06;5321184;32;32081;-85
2023/05/30 04:26:52;;;;;;;;;;;;;;;18.97;59.86;100368.38;5315235;32;34549;-85
2023/05/30 04:29:54;;;;;;;;;;;;;;;19.86;57.43;100375.81;5321798;32;33171;-85
2023/05/30 04:32:56;;;;;;;;;;;;;;;19.93;56.71;100377.03;5320494;32;34034;-85
2023/05/30 04:35:59;;;;;;;;;;;;;;;20.36;55.47;100373.63;5362227;32;33712;-86
2023/05/30 04:39:02;;;;;;;;;;;;;;;20.01;56.72;100382.59;5362154;32;34407;-84
2023/05/30 04:42:07;;;;;;;;;;;;;;;20.33;55.81;100384.53;5355386;32;32914;-84
2023/05/30 04:45:10;;;;;;;;;;;;;;;20.14;56.01;100387.81;5366665;32;33991;-85
2023/05/30 04:48:12;;;;;;;;;;;;;;;20.75;54.16;100388.28;5354363;32;44621;-84
2023/05/30 04:51:14;;;;;;;;;;;;;;;20.52;55.10;100382.97;5369188;32;32986;-85
2023/05/30 04:54:16;;;;;;;;;;;;;;;20.53;55.09;100389.16;5354965;32;33733;-84
2023/05/30 04:57:19;;;;;;;;;;;;;;;20.49;54.57;100385.91;5361153;32;35594;-84
2023/05/30 05:00:21;;;;;;;;;;;;;;;20.15;54.82;100386.84;5367409;32;34820;-83
2023/05/30 05:03:25;;;;;;;;;;;;;;;21.26;51.70;100387.62;5358692;32;34180;-85
2023/05/30 05:06:28;;;;;;;;;;;;;;;21.18;51.44;100385.56;5369925;32;33101;-85
2023/05/30 05:09:30;;;;;;;;;;;;;;;21.79;49.63;100379.59;5339233;32;33207;-85
2023/05/30 05:12:32;;;;;;;;;;;;;;;21.27;51.17;100390.16;5332572;32;34348;-85
2023/05/30 05:15:34;;;;;;;;;;;;;;;22.42;47.77;100372.28;5351557;32;34463;-85
2023/05/30 05:18:36;;;;;;;;;;;;;;;22.11;48.45;100384.84;5361864;32;34230;-85
2023/05/30 05:21:38;;;;;;;;;;;;;;;21.43;49.60;100394.25;5365421;32;34346;-85
2023/05/30 05:24:40;;;;;;;;;;;;;;;21.40;50.20;100400.72;5344898;32;33882;-84
2023/05/30 05:27:43;;;;;;;;;;;;;;;21.69;48.45;100387.53;5359529;32;47857;-85
2023/05/30 05:30:45;;;;;;;;;;;;;;;22.05;47.97;100396.91;5359320;32;33906;-84
2023/05/30 05:33:47;;;;;;;;;;;;;;;21.86;48.64;100403.00;5365357;32;34180;-83
2023/05/30 05:36:49;;;;;;;;;;;;;;;22.82;46.05;100395.50;5345296;32;33911;-83
2023/05/30 05:39:51;;;;;;;;;;;;;;;23.93;43.64;100398.59;5355769;32;34798;-83
2023/05/30 05:42:53;;;;;;;;;;;;;;;24.05;43.50;100396.59;5353349;32;34332;-84
2023/05/30 05:45:55;;;;;;;;;;;;;;;24.49;42.04;100391.50;5748962;27;33570;-80
2023/05/30 05:48:57;;;;;;;;;;;;;;;25.09;40.38;100390.00;5359147;32;33733;-72
2023/05/30 05:51:59;;;;;;;;;;;;;;;25.16;39.87;100392.06;5361512;32;33134;-72
2023/05/30 05:55:02;;;;;;;;;;;;;;;24.79;41.58;100399.22;5373095;32;34312;-69
2023/05/30 05:58:04;;;;;;;;;;;;;;;24.48;42.06;100392.50;5380660;32;34525;-70
2023/05/30 06:01:07;;;;;;;;;;;;;;;24.56;41.46;100392.59;5371756;32;33636;-73
2023/05/30 06:04:10;;;;;;;;;;;;;;;24.24;41.74;100401.91;5389692;32;33645;-72
2023/05/30 06:07:12;;;;;;;;;;;;;;;24.52;41.23;100402.78;5372594;32;45150;-72
2023/05/30 06:10:13;;;;;;;;;;;;;;;24.85;40.56;100412.06;5379461;32;34016;-75
2023/05/30 06:13:16;;;;;;;;;;;;;;;25.30;40.11;100413.87;5364269;32;33639;-71
2023/05/30 06:16:18;;;;;;;;;;;;;;;24.89;40.64;100412.63;5356044;32;33574;-71
2023/05/30 06:19:19;;;;;;;;;;;;;;;24.18;40.77;100412.38;5383812;32;33207;-69
2023/05/30 06:22:21;;;;;;;;;;;;;;;23.27;42.70;100416.47;5362767;32;33524;-74
2023/05/30 06:25:25;;;;;;;;;;;;;;;24.40;40.83;100414.72;5384273;32;33136;-71
2023/05/30 06:28:29;;;;;;;;;;;;;;;24.07;41.20;100416.09;5364645;32;34300;-72
2023/05/30 06:31:32;;;;;;;;;;;;;;;25.06;38.69;100409.13;5363358;32;32858;-70
2023/05/30 06:34:34;;;;;;;;;;;;;;;24.35;40.87;100418.88;5375392;32;34010;-69
2023/05/30 06:37:36;;;;;;;;;;;;;;;25.58;38.31;100419.19;5375339;32;33528;-68
2023/05/30 06:40:38;;;;;;;;;;;;;;;27.23;35.12;100415.31;5382517;32;33231;-70
2023/05/30 06:43:40;;;;;;;;;;;;;;;28.38;32.99;100414.22;5354644;32;44526;-67
2023/05/30 06:46:42;;;;;;;;;;;;;;;28.24;33.23;100417.63;5382376;32;33896;-73
2023/05/30 06:49:44;;;;;;;;;;;;;;;25.93;37.34;100421.81;5354278;32;34043;-68
2023/05/30 06:52:46;;;;;;;;;;;;;;;27.34;34.52;100417.69;5370613;32;34174;-74
2023/05/30 06:55:48;;;;;;;;;;;;;;;25.56;36.74;100435.47;5372019;32;34468;-68
2023/05/30 06:58:50;;;;;;;;;;;;;;;26.25;35.88;100420.31;5375993;32;33779;-73
2023/05/30 07:01:52;;;;;;;;;;;;;;;27.57;33.48;100425.97;5381394;32;33716;-75
2023/05/30 07:04:54;;;;;;;;;;;;;;;26.41;35.14;100438.47;5367037;32;34455;-71
2023/05/30 07:07:57;;;;;;;;;;;;;;;27.86;33.37;100420.06;5386083;32;32279;-73
2023/05/30 07:10:59;;;;;;;;;;;;;;;28.92;31.20;100414.34;5377951;32;33652;-66
2023/05/30 07:14:01;;;;;;;;;;;;;;;29.11;29.56;100416.59;5380506;32;33680;-71
2023/05/30 07:17:04;;;;;;;;;;;;;;;29.08;29.78;100416.09;5381660;32;33308;-70
2023/05/30 07:20:07;;;;;;;;;;;;;;;30.84;26.93;100408.44;5372829;32;33051;-68
2023/05/30 07:23:09;;;;;;;;;;;;;;;30.37;27.79;100421.38;5383727;32;34980;-68
2023/05/30 07:26:11;;;;;;;;;;;;;;;30.85;27.00;100407.38;5381810;32;45395;-71
2023/05/30 07:29:13;;;;;;;;;;;;;;;31.44;25.95;100410.78;5365570;32;34580;-71
2023/05/30 07:32:16;;;;;;;;;;;;;;;31.65;25.59;100411.78;5364565;32;34258;-73
2023/05/30 07:35:18;;;;;;;;;;;;;;;31.00;26.76;100414.47;5376933;32;33307;-71
2023/05/30 07:38:20;;;;;;;;;;;;;;;31.53;26.47;100423.16;5382884;32;33563;-67
2023/05/30 07:41:22;;;;;;;;;;;;;;;32.35;24.84;100416.28;5369368;32;34649;-70
2023/05/30 07:44:24;;;;;;;;;;;;;;;32.60;24.78;100416.63;5376745;32;36993;-67
2023/05/30 07:47:26;;;;;;;;;;;;;;;32.10;25.63;100417.78;5379268;32;33034;-69
2023/05/30 07:50:28;;;;;;;;;;;;;;;30.95;27.29;100421.50;5373157;32;33080;-67
2023/05/30 07:53:30;;;;;;;;;;;;;;;32.21;25.58;100414.50;5374324;32;34503;-73
2023/05/30 07:56:33;;;;;;;;;;;;;;;32.20;25.41;100421.81;5363175;32;34010;-72
2023/05/30 07:59:35;;;;;;;;;;;;;;;29.70;29.17;100423.25;5376518;32;33358;-71
2023/05/30 08:02:37;;;;;;;;;;;;;;;29.65;28.74;100418.38;5358236;32;33384;-75
2023/05/30 08:05:39;;;;;;;;;;;;;;;31.91;25.27;100419.31;5381109;32;34119;-73
2023/05/30 08:08:41;;;;;;;;;;;;;;;32.57;24.08;100422.44;5378657;32;45714;-70
2023/05/30 08:11:43;;;;;;;;;;;;;;;32.34;24.17;100420.88;5386685;32;34156;-74
2023/05/30 08:14:45;;;;;;;;;;;;;;;31.33;25.69;100422.16;5368208;32;34249;-74
2023/05/30 08:17:48;;;;;;;;;;;;;;;29.12;28.90;100434.50;5377346;32;32972;-72
2023/05/30 08:20:54;;;;;;;;;;;;;;;32.08;24.97;100428.84;5382322;32;33870;-74
2023/05/30 08:23:57;;;;;;;;;;;;;;;31.25;26.21;100427.72;5379004;32;32962;-72
2023/05/30 08:27:06;;;;;;;;;;;;;;;32.81;23.92;100418.34;5371543;32;34738;-70
2023/05/30 08:30:08;;;;;;;;;;;;;;;33.12;23.69;100415.97;5357242;32;33971;-70
2023/05/30 08:33:12;;;;;;;;;;;;;;;35.31;21.05;100415.53;5376481;32;43367;-72
2023/05/30 08:36:15;;;;;;;;;;;;;;;34.26;21.70;100423.09;5363941;32;34211;-73
2023/05/30 08:39:18;;;;;;;;;;;;;;;33.47;22.61;100413.09;5376847;32;33394;-69
2023/05/30 08:42:20;;;;;;;;;;;;;;;32.97;22.89;100425.34;5358902;32;32399;-71
2023/05/30 08:45:25;;;;;;;;;;;;;;;32.23;24.12;100420.56;5363716;32;33103;-72
2023/05/30 08:48:28;;;;;;;;;;;;;;;32.49;23.94;100425.34;5381333;32;34323;-72
2023/05/30 08:51:30;;;;;;;;;;;;;;;32.45;23.92;100424.91;5374905;32;33655;-72
2023/05/30 08:54:36;;;;;;;;;;;;;;;32.18;24.43;100437.47;5379854;32;34372;-72
2023/05/30 08:57:48;;;;;;;;;;;;;;;31.57;25.23;100431.78;5377976;32;44627;-72
2023/05/30 09:00:51;;;;;;;;;;;;;;;32.37;24.28;100438.66;5366529;32;32962;-70
2023/05/30 09:03:53;;;;;;;;;;;;;;;33.00;23.68;100433.94;5378598;32;33042;-75
2023/05/30 09:06:56;;;;;;;;;;;;;;;33.93;22.99;100434.91;5357615;32;33570;-73
2023/05/30 09:09:59;;;;;;;;;;;;;;;33.17;24.19;100437.16;5391160;32;33615;-71
2023/05/30 09:13:01;;;;;;;;;;;;;;;34.61;22.18;100444.66;5378400;32;35743;-74
2023/05/30 09:16:03;;;;;;;;;;;;;;;31.83;25.95;100442.06;5379085;32;33405;-71
2023/05/30 09:19:08;;;;;;;;;;;;;;;32.52;25.33;100446.69;5387689;32;33760;-70
2023/05/30 09:22:11;;;;;;;;;;;;;;;33.30;24.13;100442.59;5355806;32;44395;-75
2023/05/30 09:25:17;;;;;;;;;;;;;;;31.67;26.52;100454.00;5383548;32;33476;-72
2023/05/30 09:28:23;;;;;;;;;;;;;;;31.47;27.02;100453.81;5370932;32;33139;-72
2023/05/30 09:31:26;;;;;;;;;;;;;;;30.74;27.74;100468.44;5382794;32;32069;-79
2023/05/30 09:34:28;;;;;;;;;;;;;;;30.38;28.61;100469.16;5357389;32;34646;-74
2023/05/30 09:37:41;;;;;;;;;;;;;;;29.61;29.51;100463.94;5380067;32;33022;-73
2023/05/30 09:40:43;;;;;;;;;;;;;;;29.08;30.80;100471.03;5385638;32;44734;-71
2023/05/30 09:43:52;;;;;;;;;;;;;;;29.31;31.23;100486.47;5369868;32;33413;-85
2023/05/30 09:46:55;;;;;;;;;;;;;;;29.06;32.08;100485.78;5385283;32;34564;-67
2023/05/30 09:50:01;;;;;;;;;;;;;;;30.38;30.21;100484.56;5366624;32;33311;-66
2023/05/30 09:53:03;;;;;;;;;;;;;;;30.51;29.89;100478.50;5379739;32;33115;-81
2023/05/30 09:56:06;;;;;;;;;;;;;;;29.64;31.83;100471.72;5390981;32;33459;-81
2023/05/30 09:59:09;;;;;;;;;;;;;;;28.85;34.12;100478.22;5365077;32;34852;-64
2023/05/30 10:02:13;;;;;;;;;;;;;;;29.03;34.43;100489.66;5382777;32;44530;-66
2023/05/30 10:05:19;;;;;;;;;;;;;;;30.42;32.47;100489.44;5378113;32;33003;-78
2023/05/30 10:08:21;;;;;;;;;;;;;;;30.57;32.67;100477.75;5370836;32;32889;-80
2023/05/30 10:11:23;;;;;;;;;;;;;;;32.21;29.53;100480.59;5382772;32;35915;-78
2023/05/30 10:14:25;;;;;;;;;;;;;;;30.52;31.54;100480.19;5374749;32;35401;-82
2023/05/30 10:17:27;;;;;;;;;;;;;;;28.90;33.89;100493.94;5387201;32;33353;-82
2023/05/30 10:20:29;;;;;;;;;;;;;;;30.39;30.88;100481.66;5378025;32;33203;-69
2023/05/30 10:23:32;;;;;;;;;;;;;;;30.28;31.02;100473.19;5389183;32;34546;-76
2023/05/30 10:26:34;;;;;;;;;;;;;;;28.72;33.83;100475.25;5380559;32;34112;-69
2023/05/30 10:29:39;;;;;;;;;;;;;;;30.33;31.22;100474.28;5356778;32;32980;-68
2023/05/30 10:32:45;;;;;;;;;;;;;;;29.86;31.97;100470.00;5369207;32;44342;-69
2023/05/30 10:35:47;;;;;;;;;;;;;;;32.39;27.76;100463.78;5380536;32;33027;-69
2023/05/30 10:38:55;;;;;;;;;;;;;;;31.89;28.25;100462.16;5383784;32;33508;-71
2023/05/30 10:42:02;;;;;;;;;;;;;;;31.38;28.66;100459.59;5362709;32;33056;-74
2023/05/30 10:45:12;;;;;;;;;;;;;;;33.15;26.11;100455.53;5382687;32;34487;-74
2023/05/30 10:48:38;;;;;;;;;;;;;;;34.15;24.53;100451.88;5384440;32;44434;-74
2023/05/30 10:51:59;;;;;;;;;;;;;;;34.53;23.82;100444.91;5386936;32;43970;-76
2023/05/30 10:55:06;;;;;;;;;;;;;;;33.45;25.11;100447.06;5395703;32;33504;-75
2023/05/30 10:58:27;;;;;;;;;;;;;;;32.72;25.88;100452.22;5370357;32;33037;-79
2023/05/30 11:01:31;;;;;;;;;;;;;;;32.66;25.41;100443.00;5379046;32;33250;-78
2023/05/30 11:04:38;;;;;;;;;;;;;;;31.36;27.64;100440.75;5382279;32;33405;-74
2023/05/30 11:07:47;;;;;;;;;;;;;;;32.60;25.50;100446.53;5381525;32;43382;-83
2023/05/30 11:10:55;;;;;;;;;;;;;;;30.57;29.09;100448.75;5384911;32;34248;-78
2023/05/30 11:13:58;;;;;;;;;;;;;;;28.86;32.60;100444.78;5362783;32;33245;-71
2023/05/30 11:17:01;;;;;;;;;;;;;;;29.07;32.27;100447.72;5378403;32;33463;-74
2023/05/30 11:20:06;;;;;;;;;;;;;;;28.33;33.86;100446.31;5364216;32;33005;-79
2023/05/30 11:23:09;;;;;;;;;;;;;;;29.32;32.40;100456.53;5373086;32;32981;-69
2023/05/30 11:26:14;;;;;;;;;;;;;;;31.09;28.99;100442.31;5391732;32;44640;-74
2023/05/30 11:29:29;;;;;;;;;;;;;;;30.51;30.37;100452.22;5352513;32;32899;-73
2023/05/30 11:32:34;;;;;;;;;;;;;;;32.11;27.69;100443.91;5382975;32;33473;-77
2023/05/30 11:35:37;;;;;;;;;;;;;;;32.97;26.51;100439.78;5383489;32;33454;-70
2023/05/30 11:38:43;;;;;;;;;;;;;;;32.52;27.03;100446.69;5367842;32;34172;-70
2023/05/30 11:41:45;;;;;;;;;;;;;;;34.17;24.71;100436.13;5341567;32;44390;-73
2023/05/30 11:44:47;;;;;;;;;;;;;;;34.47;24.09;100425.59;5363139;32;34796;-76
2023/05/30 11:47:49;;;;;;;;;;;;;;;34.43;23.49;100428.97;5378471;32;34615;-74
2023/05/30 11:50:53;;;;;;;;;;;;;;;32.77;25.71;100434.25;5383928;32;33022;-73
2023/05/30 11:53:56;;;;;;;;;;;;;;;33.12;25.00;100424.13;5379748;32;33184;-76
2023/05/30 11:56:58;;;;;;;;;;;;;;;32.15;26.42;100424.31;5380352;32;31921;-77
2023/05/30 12:00:00;;;;;;;;;;;;;;;31.06;28.57;100426.44;5372433;32;33543;-78
2023/05/30 12:03:02;;;;;;;;;;;;;;;30.09;29.27;100426.59;5373293;32;34513;-77
2023/05/30 12:06:14;;;;;;;;;;;;;;;30.23;29.75;100426.81;5384991;32;31895;-78
2023/05/30 12:09:17;;;;;;;;;;;;;;;31.41;28.67;100419.28;5361395;32;44576;-85
2023/05/30 12:12:19;;;;;;;;;;;;;;;30.34;30.73;100413.63;5371430;32;31968;-82
2023/05/30 12:15:21;;;;;;;;;;;;;;;29.51;32.02;100411.91;5391546;32;33111;-78
2023/05/30 12:18:25;;;;;;;;;;;;;;;28.73;33.63;100414.75;5376350;32;32903;-79
2023/05/30 12:21:29;;;;;;;;;;;;;;;28.69;33.75;100402.59;5370669;32;33272;-70
2023/05/30 12:24:37;;;;;;;;;;;;;;;29.45;32.42;100406.34;5374453;32;33151;-71
2023/05/30 12:27:43;;;;;;;;;;;;;;;28.15;34.97;100402.47;5364580;32;32251;-74
2023/05/30 12:30:45;;;;;;;;;;;;;;;29.39;32.50;100394.38;5361899;32;33182;-67
2023/05/30 12:33:50;;;;;;;;;;;;;;;29.05;32.68;100386.69;5386740;32;34653;-69
2023/05/30 12:36:55;;;;;;;;;;;;;;;28.04;34.00;100390.16;5391305;32;32946;-77
2023/05/30 12:39:58;;;;;;;;;;;;;;;28.34;31.80;100393.97;5375623;32;32766;-78
2023/05/30 12:43:00;;;;;;;;;;;;;;;27.90;34.55;100389.00;5356771;32;32970;-82
2023/05/30 12:46:05;;;;;;;;;;;;;;;27.04;36.40;100375.13;5388457;32;33542;-72
2023/05/30 12:49:08;;;;;;;;;;;;;;;28.52;33.43;100372.91;5382310;32;32425;-76
2023/05/30 12:52:11;;;;;;;;;;;;;;;28.80;32.04;100380.56;5374423;32;43058;-71
2023/05/30 12:55:15;;;;;;;;;;;;;;;29.42;30.46;100386.72;5367029;32;33256;-79
2023/05/30 12:58:17;;;;;;;;;;;;;;;28.06;33.58;100398.91;5385250;32;32989;-73
2023/05/30 13:01:19;;;;;;;;;;;;;;;28.55;31.47;100383.41;5376398;32;34678;-69
2023/05/30 13:04:21;;;;;;;;;;;;;;;28.64;32.41;100386.06;5356374;32;34446;-76
2023/05/30 13:07:24;;;;;;;;;;;;;;;28.58;30.73;100388.44;5377256;32;32943;-74
2023/05/30 13:10:27;;;;;;;;;;;;;;;29.47;29.24;100390.75;5374425;32;34543;-79
2023/05/30 13:13:30;;;;;;;;;;;;;;;28.59;29.70;100375.75;5381078;32;33941;-74
2023/05/30 13:16:32;;;;;;;;;;;;;;;28.50;30.65;100390.34;5371212;32;33047;-75
2023/05/30 13:19:40;;;;;;;;;;;;;;;27.35;32.70;100389.69;5380950;32;44546;-75
2023/05/30 13:22:42;;;;;;;;;;;;;;;27.22;33.19;100383.94;5385315;32;32957;-82
2023/05/30 13:25:45;;;;;;;;;;;;;;;27.57;32.18;100382.78;5367776;32;34975;-71
2023/05/30 13:28:47;;;;;;;;;;;;;;;28.91;30.60;100388.25;5356651;32;34501;-77
2023/05/30 13:31:49;;;;;;;;;;;;;;;27.37;33.35;100392.22;5379393;32;33013;-76
2023/05/30 13:34:51;;;;;;;;;;;;;;;27.67;32.11;100394.22;5384603;32;33124;-73
2023/05/30 13:37:54;;;;;;;;;;;;;;;28.00;32.42;100392.34;5382839;32;33930;-80
2023/05/30 13:40:56;;;;;;;;;;;;;;;28.13;31.93;100385.56;5355961;32;33893;-80
2023/05/30 13:44:02;;;;;;;;;;;;;;;28.44;31.67;100385.66;5362161;32;32930;-80
2023/05/30 13:47:04;;;;;;;;;;;;;;;28.44;31.42;100375.66;5382154;32;32275;-75
2023/05/30 13:50:11;;;;;;;;;;;;;;;28.48;31.37;100378.88;5370382;32;44910;-74
2023/05/30 13:53:13;;;;;;;;;;;;;;;28.99;30.76;100374.72;5380488;32;34624;-70
2023/05/30 13:56:15;;;;;;;;;;;;;;;28.50;31.51;100372.25;5386508;32;34534;-73
2023/05/30 13:59:19;;;;;;;;;;;;;;;27.88;32.89;100363.16;5362050;32;31855;-83
2023/05/30 14:02:22;;;;;;;;;;;;;;;28.89;30.72;100357.84;5368728;32;33999;-74
2023/05/30 14:05:24;;;;;;;;;;;;;;;28.31;31.51;100360.00;5379689;32;33887;-75
2023/05/30 14:08:27;;;;;;;;;;;;;;;28.48;31.37;100357.25;5371602;32;32965;-72
2023/05/30 14:11:29;;;;;;;;;;;;;;;27.95;32.02;100356.94;5374836;32;33135;-72
2023/05/30 14:14:31;;;;;;;;;;;;;;;27.74;32.77;100356.63;5375801;32;34432;-76
2023/05/30 14:17:34;;;;;;;;;;;;;;;28.64;31.35;100348.19;5372774;32;33057;-81
2023/05/30 14:20:36;;;;;;;;;;;;;;;28.77;31.10;100351.16;5380073;32;33577;-80
2023/05/30 14:23:38;;;;;;;;;;;;;;;28.55;31.06;100361.78;5364057;32;35511;-77
2023/05/30 14:26:41;;;;;;;;;;;;;;;27.29;32.56;100366.06;5378638;32;44182;-80
2023/05/30 14:29:43;;;;;;;;;;;;;;;27.17;33.09;100389.84;5334284;32;34318;-76
2023/05/30 14:32:48;;;;;;;;;;;;;;;26.13;35.15;100422.44;5367139;32;33341;-76
2023/05/30 14:35:50;;;;;;;;;;;;;;;24.64;38.46;100441.03;5360541;32;34174;-77
2023/05/30 14:38:52;;;;;;;;;;;;;;;25.05;38.28;100442.41;5357444;32;32261;-77
2023/05/30 14:41:54;;;;;;;;;;;;;;;23.13;42.19;100466.81;5358482;32;34674;-80
2023/05/30 14:44:56;;;;;;;;;;;;;;;21.96;44.34;100485.13;5369856;32;33322;-80
2023/05/30 14:47:58;;;;;;;;;;;;;;;22.49;41.85;100491.28;5391494;32;33929;-77
2023/05/30 14:51:00;;;;;;;;;;;;;;;21.79;43.04;100475.88;5377923;32;32268;-77
2023/05/30 14:54:03;;;;;;;;;;;;;;;21.14;43.61;100484.84;5386735;32;33348;-76
2023/05/30 14:57:07;;;;;;;;;;;;;;;21.02;44.44;100474.19;5377699;32;33707;-80
2023/05/30 15:00:10;;;;;;;;;;;;;;;20.66;45.42;100475.31;5381144;32;34007;-73
2023/05/30 15:03:13;;;;;;;;;;;;;;;21.30;44.32;100469.28;5362386;32;45048;-80
2023/05/30 15:06:15;;;;;;;;;;;;;;;20.92;45.25;100472.38;5379388;32;35114;-80
2023/05/30 15:09:19;;;;;;;;;;;;;;;20.64;46.13;100490.63;5394242;32;34491;-76
2023/05/30 15:12:21;;;;;;;;;;;;;;;21.02;45.12;100506.25;5369676;32;31453;-81
2023/05/30 15:15:23;;;;;;;;;;;;;;;22.07;42.94;100496.62;5386796;32;33341;-81
2023/05/30 15:18:25;;;;;;;;;;;;;;;21.41;43.87;100511.19;5381049;32;33701;-76
2023/05/30 15:21:27;;;;;;;;;;;;;;;21.30;43.98;100496.84;5382541;32;34474;-75
2023/05/30 15:24:29;;;;;;;;;;;;;;;21.47;43.52;100513.34;5393772;32;34835;-76
2023/05/30 15:27:31;;;;;;;;;;;;;;;20.97;44.47;100519.13;5378179;32;33875;-77
2023/05/30 15:30:34;;;;;;;;;;;;;;;21.12;44.95;100509.00;5369160;32;33056;-77
2023/05/30 15:33:37;;;;;;;;;;;;;;;20.93;45.39;100508.81;5375864;32;34108;-76
2023/05/30 15:36:39;;;;;;;;;;;;;;;20.64;46.15;100503.97;5383723;32;36374;-76
2023/05/30 15:39:41;;;;;;;;;;;;;;;20.87;46.26;100499.47;5392705;32;44441;-76